Time;durP1;ratioP1;P1;durP2;ratioP2;P2;SDS_P1;SDS_P2;PMS_P1;PMS_P2;Temp;Humidity;BMP_temperature;BMP_pressure;BME280_temperature;BME280_humidity;BME280_pressure;Samples;Min_cycle;Max_cycle;Signal;HPM_P1;HPM_P2
2023/08/11 00:01:56;;;;;;;5.77;4.60;;;;;;;20.73;100.00;101911.19;5237635;28;20033;-86
2023/08/11 00:04:27;;;;;;;8.47;4.90;;;;;;;20.50;100.00;101903.38;5229421;28;20054;-86
2023/08/11 00:06:59;;;;;;;6.43;4.50;;;;;;;20.40;100.00;101915.78;5223112;28;20583;-81
2023/08/11 00:09:30;;;;;;;6.93;4.87;;;;;;;20.17;100.00;101911.47;5233191;28;20028;-73
2023/08/11 00:12:02;;;;;;;8.60;5.20;;;;;;;20.27;100.00;101906.19;5236521;28;20029;-83
2023/08/11 00:14:33;;;;;;;6.30;4.17;;;;;;;20.37;100.00;101905.41;5237515;28;20037;-83
2023/08/11 00:17:05;;;;;;;7.27;5.47;;;;;;;20.21;100.00;101901.41;5236376;28;20029;-85
2023/08/11 00:19:36;;;;;;;7.93;5.10;;;;;;;20.29;100.00;101901.59;5235308;28;20024;-83
2023/08/11 00:22:07;;;;;;;5.30;4.63;;;;;;;20.30;100.00;101903.25;5237135;28;20116;-87
2023/08/11 00:24:39;;;;;;;6.90;5.00;;;;;;;20.26;100.00;101903.66;5237326;28;20036;-72
2023/08/11 00:27:10;;;;;;;7.60;4.40;;;;;;;20.14;100.00;101901.06;5236116;28;20042;-76
2023/08/11 00:29:41;;;;;;;7.57;4.30;;;;;;;20.01;100.00;101897.72;5237048;28;20059;-83
2023/08/11 00:32:13;;;;;;;6.30;4.53;;;;;;;20.19;100.00;101903.34;5235966;28;20036;-81
2023/08/11 00:34:45;;;;;;;6.50;5.00;;;;;;;20.28;100.00;101896.41;5237036;28;20036;-85
2023/08/11 00:37:16;;;;;;;7.87;4.93;;;;;;;20.01;100.00;101908.34;5237249;28;20029;-75
2023/08/11 00:39:49;;;;;;;7.70;5.03;;;;;;;20.04;100.00;101905.44;5236971;28;20473;-87
2023/08/11 00:42:21;;;;;;;10.80;4.55;;;;;;;19.99;100.00;101900.50;5235781;28;20032;-84
2023/08/11 00:44:53;;;;;;;6.70;4.53;;;;;;;20.14;100.00;101901.06;5234204;28;20041;-80
2023/08/11 00:47:25;;;;;;;7.77;5.13;;;;;;;20.10;100.00;101893.47;5229660;28;20026;-85
2023/08/11 00:49:57;;;;;;;6.13;4.30;;;;;;;20.05;100.00;101886.75;5235407;28;20075;-84
2023/08/11 00:52:28;;;;;;;6.13;4.47;;;;;;;19.93;100.00;101883.25;5236112;28;20440;-85
2023/08/11 00:55:00;;;;;;;6.87;5.30;;;;;;;20.10;100.00;101872.22;5236966;28;20124;-84
2023/08/11 00:57:32;;;;;;;7.90;4.40;;;;;;;20.13;100.00;101874.59;5235505;28;20029;-73
2023/08/11 01:00:12;;;;;;;6.33;4.70;;;;;;;20.30;100.00;101867.84;5236282;28;20033;-88
2023/08/11 01:02:44;;;;;;;11.50;6.23;;;;;;;20.07;100.00;101874.16;5225400;28;20034;-84
2023/08/11 01:05:19;;;;;;;11.57;5.57;;;;;;;20.02;100.00;101871.00;5235253;28;20037;-84
2023/08/11 01:07:50;;;;;;;;;;;;;;;20.82;100.00;101866.13;5237570;28;20486;-83
2023/08/11 01:10:45;;;;;;;8.10;5.67;;;;;;;20.20;100.00;101862.47;5236856;28;19913;-88
2023/08/11 01:13:19;;;;;;;8.83;6.20;;;;;;;19.88;100.00;101863.38;5235603;28;20032;-84
2023/08/11 01:15:57;;;;;;;6.95;5.50;;;;;;;19.94;100.00;101865.50;5235814;28;20033;-84
2023/08/11 01:18:30;;;;;;;7.43;6.00;;;;;;;19.77;100.00;101862.44;5225423;28;20033;-86
2023/08/11 01:21:11;;;;;;;8.93;6.37;;;;;;;20.10;100.00;101859.75;5220960;28;20036;-74
2023/08/11 01:23:43;;;;;;;9.23;7.00;;;;;;;19.78;100.00;101847.31;5236909;28;20026;-87
2023/08/11 01:26:15;;;;;;;8.53;6.30;;;;;;;19.85;100.00;101850.31;5236376;28;20021;-75
2023/08/11 01:28:47;;;;;;;9.70;6.17;;;;;;;19.89;100.00;101852.59;5235342;28;20028;-83
2023/08/11 01:31:18;;;;;;;10.70;6.63;;;;;;;19.78;100.00;101850.84;5236537;28;20052;-75
2023/08/11 01:33:50;;;;;;;8.83;6.80;;;;;;;19.85;100.00;101847.66;5229429;28;20546;-78
2023/08/11 01:36:21;;;;;;;9.60;7.00;;;;;;;19.62;100.00;101845.13;5222487;28;20083;-83
2023/08/11 01:38:52;;;;;;;9.40;6.00;;;;;;;19.79;100.00;101847.19;5235956;28;20438;-86
2023/08/11 01:41:24;;;;;;;8.57;6.77;;;;;;;19.58;100.00;101858.63;5232718;28;20029;-87
2023/08/11 01:43:56;;;;;;;8.07;6.83;;;;;;;19.75;100.00;101859.06;5230923;28;20068;-81
2023/08/11 01:46:29;;;;;;;10.53;6.57;;;;;;;19.48;100.00;101847.09;5236138;28;20037;-84
2023/08/11 01:49:01;;;;;;;8.30;6.93;;;;;;;19.43;100.00;101852.78;5235240;28;20615;-85
2023/08/11 01:51:33;;;;;;;8.83;6.27;;;;;;;19.55;100.00;101852.72;5234553;28;20031;-88
2023/08/11 01:54:04;;;;;;;11.07;6.53;;;;;;;19.37;100.00;101849.78;5233459;28;20021;-82
2023/08/11 01:56:39;;;;;;;8.37;6.17;;;;;;;19.60;100.00;101850.56;5234560;28;20032;-87
2023/08/11 01:59:13;;;;;;;10.37;6.30;;;;;;;19.30;100.00;101850.31;5232398;28;20387;-88
2023/08/11 02:01:44;;;;;;;15.15;7.45;;;;;;;19.33;100.00;101850.06;5217021;28;20147;-82
2023/08/11 02:04:16;;;;;;;9.20;7.57;;;;;;;19.39;100.00;101848.69;5234571;28;20091;-86
2023/08/11 02:06:47;;;;;;;8.40;6.80;;;;;;;19.26;100.00;101843.56;5234759;28;20026;-88
2023/08/11 02:09:18;;;;;;;8.20;6.47;;;;;;;19.33;100.00;101839.44;5233779;28;20439;-87
2023/08/11 02:11:49;;;;;;;8.10;6.10;;;;;;;19.31;100.00;101845.81;5234029;28;20175;-84
2023/08/11 02:14:21;;;;;;;7.87;6.70;;;;;;;19.19;100.00;101821.97;5234518;28;20040;-73
2023/08/11 02:16:52;;;;;;;10.23;6.80;;;;;;;19.12;100.00;101841.16;5235477;28;20053;-83
2023/08/11 02:19:24;;;;;;;7.97;6.50;;;;;;;19.29;100.00;101843.28;5234974;28;20055;-87
2023/08/11 02:21:55;;;;;;;10.13;7.40;;;;;;;19.39;100.00;101823.97;5235096;28;20037;-87
2023/08/11 02:24:27;;;;;;;8.83;6.60;;;;;;;19.42;100.00;101823.69;5234617;28;20017;-76
2023/08/11 02:26:58;;;;;;;10.00;7.23;;;;;;;19.26;100.00;101829.41;5234122;28;20086;-86
2023/08/11 02:29:29;;;;;;;10.17;7.10;;;;;;;19.23;100.00;101838.50;5233107;28;20040;-84
2023/08/11 02:32:03;;;;;;;9.53;7.23;;;;;;;19.16;100.00;101837.31;5233994;28;20504;-78
2023/08/11 02:34:34;;;;;;;10.45;7.65;;;;;;;19.46;100.00;101827.81;5234855;28;20026;-83
2023/08/11 02:37:06;;;;;;;11.27;6.60;;;;;;;19.24;100.00;101842.81;5234225;28;20037;-74
2023/08/11 02:39:37;;;;;;;9.23;6.90;;;;;;;19.24;100.00;101845.47;5234647;28;20048;-84
2023/08/11 02:42:08;;;;;;;11.47;6.63;;;;;;;19.19;100.00;101853.84;5233860;28;20083;-85
2023/08/11 02:44:40;;;;;;;8.80;6.60;;;;;;;19.16;100.00;101840.81;5234976;28;20065;-86
2023/08/11 02:47:11;;;;;;;11.47;7.67;;;;;;;18.94;100.00;101839.84;5234099;28;20488;-86
2023/08/11 02:49:43;;;;;;;12.93;8.57;;;;;;;18.85;100.00;101843.25;5232636;28;20082;-78
2023/08/11 02:52:14;;;;;;;12.20;7.60;;;;;;;19.05;100.00;101846.94;5233212;28;20045;-85
2023/08/11 02:54:45;;;;;;;8.63;7.20;;;;;;;19.01;100.00;101850.81;5234797;28;20068;-83
2023/08/11 02:57:16;;;;;;;9.57;7.03;;;;;;;18.97;100.00;101844.06;5233197;28;20018;-87
2023/08/11 02:59:49;;;;;;;9.10;7.47;;;;;;;18.81;100.00;101855.91;5234365;28;20030;-84
2023/08/11 03:02:20;;;;;;;9.87;7.97;;;;;;;18.56;100.00;101846.38;5234143;28;20124;-85
2023/08/11 03:04:52;;;;;;;11.80;7.77;;;;;;;18.73;100.00;101853.00;5234371;28;20556;-75
2023/08/11 03:07:24;;;;;;;10.43;7.70;;;;;;;18.53;100.00;101846.63;5234409;28;20025;-86
2023/08/11 03:09:55;;;;;;;9.07;7.47;;;;;;;18.69;100.00;101838.31;5234721;28;20395;-84
2023/08/11 03:12:29;;;;;;;10.47;8.40;;;;;;;18.69;100.00;101836.50;5234247;28;20037;-81
2023/08/11 03:15:01;;;;;;;10.60;7.80;;;;;;;18.74;100.00;101828.16;5234667;28;20476;-79
2023/08/11 03:17:33;;;;;;;13.13;8.10;;;;;;;18.72;100.00;101830.09;5234788;28;20042;-84
2023/08/11 03:20:12;;;;;;;10.23;7.87;;;;;;;18.44;100.00;101832.25;5234405;28;20365;-77
2023/08/11 03:22:45;;;;;;;10.67;7.37;;;;;;;18.50;100.00;101832.63;5234311;28;20029;-82
2023/08/11 03:25:16;;;;;;;11.13;7.47;;;;;;;18.41;100.00;101824.56;5234734;28;20033;-84
2023/08/11 03:27:48;;;;;;;11.40;7.80;;;;;;;18.40;100.00;101830.84;5232710;28;20427;-86
2023/08/11 03:30:19;;;;;;;13.67;7.93;;;;;;;18.36;100.00;101828.41;5237017;28;20492;-81
2023/08/11 03:32:51;;;;;;;12.37;8.23;;;;;;;18.36;100.00;101828.41;5222520;28;20026;-88
2023/08/11 03:35:22;;;;;;;12.50;7.53;;;;;;;18.38;100.00;101838.88;5238141;28;20033;-86
2023/08/11 03:37:53;;;;;;;10.73;8.10;;;;;;;18.45;100.00;101826.03;5238698;28;20045;-78
2023/08/11 03:40:25;;;;;;;9.27;8.33;;;;;;;18.38;100.00;101829.13;5238646;28;20041;-85
2023/08/11 03:42:56;;;;;;;11.40;9.07;;;;;;;18.48;100.00;101817.81;5237398;28;20116;-85
2023/08/11 03:45:28;;;;;;;14.43;8.37;;;;;;;18.53;100.00;101822.75;5238136;28;20041;-85
2023/08/11 03:47:59;;;;;;;12.83;9.00;;;;;;;18.21;100.00;101809.22;5238174;28;20099;-75
2023/08/11 03:50:30;;;;;;;12.63;9.00;;;;;;;18.27;100.00;101829.13;5238517;28;20033;-75
2023/08/11 03:53:01;;;;;;;11.20;8.83;;;;;;;18.21;100.00;101827.78;5237396;28;20113;-83
2023/08/11 03:55:33;;;;;;;12.37;8.70;;;;;;;18.25;100.00;101820.44;5237880;28;20038;-85
2023/08/11 03:58:04;;;;;;;11.10;8.57;;;;;;;18.25;100.00;101820.44;5236608;28;20030;-80
2023/08/11 04:00:36;;;;;;;10.67;8.13;;;;;;;18.24;100.00;101821.38;5236546;28;20026;-74
2023/08/11 04:03:09;;;;;;;8.90;8.00;;;;;;;18.12;100.00;101824.00;5238120;28;20030;-82
2023/08/11 04:05:44;;;;;;;11.10;8.37;;;;;;;18.05;100.00;101825.44;5232241;28;20069;-79
2023/08/11 04:08:15;;;;;;;13.00;8.70;;;;;;;17.99;100.00;101820.63;5215616;28;20493;-84
2023/08/11 04:10:47;;;;;;;9.77;8.03;;;;;;;18.02;100.00;101818.56;5217425;28;20033;-79
2023/08/11 04:13:18;;;;;;;11.53;8.27;;;;;;;18.12;100.00;101824.00;5218783;28;20084;-77
2023/08/11 04:15:49;;;;;;;9.57;7.40;;;;;;;18.13;100.00;101828.38;5236846;28;20564;-79
2023/08/11 04:18:21;;;;;;;12.50;8.13;;;;;;;17.97;100.00;101819.88;5235727;28;20040;-82
2023/08/11 04:20:52;;;;;;;10.43;9.07;;;;;;;18.01;100.00;101821.34;5236774;28;20453;-81
2023/08/11 04:23:23;;;;;;;10.70;8.53;;;;;;;17.91;100.00;101818.53;5235747;28;20128;-79
2023/08/11 04:25:55;;;;;;;11.77;9.07;;;;;;;17.85;100.00;101821.66;5236746;28;20033;-80
2023/08/11 04:28:26;;;;;;;13.03;10.27;;;;;;;17.81;100.00;101831.66;5236807;28;20043;-77
2023/08/11 04:30:59;;;;;;;15.37;9.07;;;;;;;17.87;100.00;101820.56;5235794;28;20531;-82
2023/08/11 04:33:32;;;;;;;12.73;9.83;;;;;;;17.90;100.00;101822.16;5236284;28;20493;-79
2023/08/11 04:36:03;;;;;;;15.60;9.00;;;;;;;17.78;100.00;101826.59;5236871;28;20048;-85
2023/08/11 04:38:34;;;;;;;11.37;8.70;;;;;;;17.84;100.00;101820.81;5235678;28;20025;-82
2023/08/11 04:41:06;;;;;;;15.77;10.20;;;;;;;18.00;100.00;101831.09;5234931;28;20068;-79
2023/08/11 04:43:38;;;;;;;13.93;9.50;;;;;;;17.82;100.00;101822.72;5236790;28;20074;-72
2023/08/11 04:46:09;;;;;;;10.67;9.43;;;;;;;17.87;100.00;101815.28;5236507;28;20044;-83
2023/08/11 04:48:40;;;;;;;15.50;10.17;;;;;;;18.08;100.00;101821.72;5236297;28;20397;-72
2023/08/11 04:51:12;;;;;;;12.83;9.87;;;;;;;18.05;100.00;101811.34;5219056;28;20110;-82
2023/08/11 04:53:43;;;;;;;16.80;10.97;;;;;;;18.14;100.00;101818.63;5235883;28;20033;-81
2023/08/11 04:56:15;;;;;;;14.27;10.43;;;;;;;18.06;100.00;101803.28;5234610;28;20040;-81
2023/08/11 04:58:47;;;;;;;15.53;11.23;;;;;;;18.06;100.00;101803.28;5234699;28;20025;-81
2023/08/11 05:01:18;;;;;;;13.63;10.27;;;;;;;18.05;100.00;101801.56;5228157;28;20535;-83
2023/08/11 05:03:50;;;;;;;16.63;11.30;;;;;;;18.25;100.00;101794.78;5235081;28;20598;-79
2023/08/11 05:06:21;;;;;;;15.13;10.30;;;;;;;18.14;100.00;101795.63;5235635;28;20030;-74
2023/08/11 05:08:53;;;;;;;19.27;9.93;;;;;;;18.40;100.00;101804.31;5235850;28;20495;-84
2023/08/11 05:11:26;;;;;;;19.03;11.13;;;;;;;18.12;100.00;101794.84;5234361;28;20033;-82
2023/08/11 05:13:57;;;;;;;13.93;10.87;;;;;;;18.16;100.00;101797.28;5234012;28;20025;-85
2023/08/11 05:16:29;;;;;;;13.93;10.07;;;;;;;18.12;100.00;101792.19;5234713;28;20024;-85
2023/08/11 05:19:00;;;;;;;15.03;10.63;;;;;;;18.32;100.00;101795.16;5235098;28;20109;-74
2023/08/11 05:21:31;;;;;;;17.70;10.17;;;;;;;18.25;100.00;101801.88;5233701;28;20082;-84
2023/08/11 05:24:04;;;;;;;17.20;10.00;;;;;;;18.45;100.00;101804.81;5235565;28;20048;-84
2023/08/11 05:26:35;;;;;;;14.10;9.77;;;;;;;18.34;100.00;101801.19;5233941;28;20029;-77
2023/08/11 05:29:06;;;;;;;15.77;9.50;;;;;;;18.33;100.00;101799.47;5233355;28;20083;-77
2023/08/11 05:31:37;;;;;;;14.07;9.50;;;;;;;18.42;100.00;101789.97;5239360;28;20078;-84
2023/08/11 05:34:09;;;;;;;15.30;9.00;;;;;;;18.44;100.00;101796.00;5234738;28;20029;-83
2023/08/11 05:36:40;;;;;;;13.00;9.57;;;;;;;18.38;100.00;101783.19;5235106;28;20029;-77
2023/08/11 05:39:12;;;;;;;12.27;9.57;;;;;;;18.45;100.00;101786.22;5233550;28;20033;-81
2023/08/11 05:41:43;;;;;;;18.37;9.63;;;;;;;18.57;100.00;101779.94;5233571;28;20112;-86
2023/08/11 05:44:15;;;;;;;12.33;9.00;;;;;;;18.47;100.00;101790.44;5234487;28;20040;-84
2023/08/11 05:46:47;;;;;;;14.47;10.07;;;;;;;18.61;100.00;101797.31;5235512;28;20031;-82
2023/08/11 05:49:18;;;;;;;14.17;9.47;;;;;;;18.53;100.00;101789.13;5239845;28;20868;-79
2023/08/11 05:51:49;;;;;;;15.07;8.80;;;;;;;18.64;100.00;101790.06;5231081;28;20029;-81
2023/08/11 05:54:21;;;;;;;13.07;8.53;;;;;;;18.76;100.00;101789.09;5235564;28;20034;-83
2023/08/11 05:56:54;;;;;;;16.53;9.47;;;;;;;18.80;100.00;101795.00;5235187;28;20471;-82
2023/08/11 05:59:25;;;;;;;12.80;8.23;;;;;;;18.84;100.00;101791.97;5229712;28;20033;-74
2023/08/11 06:01:57;;;;;;;12.37;8.80;;;;;;;18.94;100.00;101799.16;5234472;28;20064;-80
2023/08/11 06:04:28;;;;;;;15.07;8.73;;;;;;;18.96;100.00;101790.13;5233985;28;20074;-82
2023/08/11 06:06:59;;;;;;;14.87;8.30;;;;;;;18.85;100.00;101777.72;5234561;28;20112;-75
2023/08/11 06:09:31;;;;;;;14.60;8.83;;;;;;;18.99;100.00;101789.03;5233886;28;20037;-74
2023/08/11 06:12:02;;;;;;;12.87;7.77;;;;;;;18.86;100.00;101767.97;5227162;28;20117;-79
2023/08/11 06:14:33;;;;;;;15.53;7.90;;;;;;;19.06;100.00;101795.53;5237132;28;20087;-77
2023/08/11 06:17:05;;;;;;;18.47;8.47;;;;;;;19.10;100.00;101786.34;5237026;28;20033;-76
2023/08/11 06:19:36;;;;;;;11.40;7.47;;;;;;;19.09;100.00;101779.34;5234170;28;20088;-77
2023/08/11 06:22:08;;;;;;;13.47;8.00;;;;;;;19.18;100.00;101782.28;5232815;28;20042;-81
2023/08/11 06:24:39;;;;;;;10.10;7.53;;;;;;;19.12;100.00;101785.41;5232763;28;20087;-83
2023/08/11 06:27:11;;;;;;;10.87;7.10;;;;;;;19.23;100.00;101790.69;5213829;28;20029;-87
2023/08/11 06:29:43;;;;;;;11.13;6.70;;;;;;;19.31;100.00;101793.56;5225942;28;20452;-80
2023/08/11 06:32:14;;;;;;;10.10;8.00;;;;;;;19.32;100.00;101789.91;5225154;28;20612;-83
2023/08/11 06:34:45;;;;;;;10.33;6.80;;;;;;;19.38;100.00;101791.22;5234772;28;20486;-87
2023/08/11 06:37:17;;;;;;;12.50;7.10;;;;;;;19.41;100.00;101798.13;5235592;28;20026;-82
2023/08/11 06:39:48;;;;;;;9.83;6.90;;;;;;;19.48;100.00;101798.44;5232478;28;20021;-82
2023/08/11 06:42:21;;;;;;;10.37;6.67;;;;;;;19.53;100.00;101804.22;5225669;28;20117;-82
2023/08/11 06:44:52;;;;;;;8.97;6.37;;;;;;;19.60;100.00;101805.41;5213928;28;20105;-76
2023/08/11 06:47:24;;;;;;;11.53;6.47;;;;;;;19.64;100.00;101811.28;5213319;28;20060;-76
2023/08/11 06:49:56;;;;;;;11.20;6.87;;;;;;;19.71;100.00;101809.78;5221926;28;20145;-80
2023/08/11 06:52:27;;;;;;;9.73;6.17;;;;;;;19.78;100.00;101808.31;5232558;28;20040;-72
2023/08/11 06:54:58;;;;;;;10.60;6.03;;;;;;;19.80;100.00;101800.19;5234698;28;20117;-75
2023/08/11 06:57:30;;;;;;;8.73;6.13;;;;;;;19.88;100.00;101810.19;5231601;28;20484;-75
2023/08/11 07:00:01;;;;;;;7.67;5.50;;;;;;;20.06;100.00;101813.97;5233800;28;20178;-74
2023/08/11 07:02:33;;;;;;;7.97;5.30;;;;;;;20.13;100.00;101811.63;5234648;28;20038;-71
2023/08/11 07:05:05;;;;;;;14.53;5.70;;;;;;;20.16;100.00;101813.19;5238191;28;20045;-78
2023/08/11 07:07:36;;;;;;;10.53;5.33;;;;;;;20.25;100.00;101806.22;5238516;28;20033;-80
2023/08/11 07:10:08;;;;;;;7.50;4.10;;;;;;;20.35;100.00;101814.25;5238114;28;20026;-73
2023/08/11 07:12:39;;;;;;;8.07;4.50;;;;;;;20.40;100.00;101810.19;5236529;28;20041;-74
2023/08/11 07:15:11;;;;;;;7.60;4.70;;;;;;;20.53;100.00;101815.31;5237185;28;20120;-73
2023/08/11 07:17:42;;;;;;;8.20;4.77;;;;;;;20.66;100.00;101819.56;5233952;28;20487;-74
2023/08/11 07:20:13;;;;;;;10.13;4.77;;;;;;;21.01;100.00;101818.28;5213513;28;20124;-71
2023/08/11 07:22:45;;;;;;;8.77;4.27;;;;;;;21.18;100.00;101815.91;5232225;28;20041;-71
2023/08/11 07:25:16;;;;;;;10.17;5.53;;;;;;;21.45;100.00;101817.03;5215891;28;20041;-72
2023/08/11 07:27:47;;;;;;;8.77;4.37;;;;;;;21.74;100.00;101812.66;5214956;28;20578;-71
2023/08/11 07:30:18;;;;;;;6.70;4.23;;;;;;;22.15;100.00;101815.13;5215848;28;20032;-70
2023/08/11 07:32:50;;;;;;;14.20;5.50;;;;;;;22.54;100.00;101826.63;5215721;28;20033;-72
2023/08/11 07:35:22;;;;;;;11.13;4.60;;;;;;;23.07;99.18;101824.25;5214428;28;20112;-71
2023/08/11 07:37:54;;;;;;;8.70;4.47;;;;;;;23.47;93.61;101826.66;5215588;28;20030;-71
2023/08/11 07:40:25;;;;;;;8.65;3.63;;;;;;;23.87;90.87;101819.94;5215656;28;20017;-72
2023/08/11 07:42:58;;;;;;;9.50;4.25;;;;;;;24.56;86.14;101826.34;5216787;28;20029;-72
2023/08/11 07:45:29;;;;;;;11.48;3.85;;;;;;;25.26;81.91;101812.78;5214679;28;20353;-70
2023/08/11 07:48:01;;;;;;;7.95;3.72;;;;;;;25.72;74.69;101823.03;5216091;28;20032;-72
2023/08/11 07:50:36;;;;;;;5.90;4.20;;;;;;;26.39;73.56;101822.88;5216270;28;20104;-72
2023/08/11 07:53:08;;;;;;;6.13;3.42;;;;;;;27.06;67.19;101827.91;5216383;28;20591;-72
2023/08/11 07:55:40;;;;;;;6.63;3.03;;;;;;;27.51;62.34;101835.28;5213860;28;20116;-72
2023/08/11 07:58:12;;;;;;;8.02;3.42;;;;;;;27.93;58.27;101829.56;5215863;28;20484;-70
2023/08/11 08:00:43;;;;;;;7.43;3.13;;;;;;;28.44;58.21;101833.38;5214932;28;20026;-72
2023/08/11 08:03:15;;;;;;;7.05;3.17;;;;;;;28.91;55.04;101833.91;5214531;28;20021;-73
2023/08/11 08:05:46;;;;;;;6.47;3.20;;;;;;;29.15;47.59;101826.50;5216318;28;20029;-73
2023/08/11 08:08:17;;;;;;;7.22;3.10;;;;;;;29.78;50.46;101837.59;5216022;28;20105;-73
2023/08/11 08:10:48;;;;;;;6.78;4.00;;;;;;;30.06;47.23;101834.88;5215639;28;20030;-73
2023/08/11 08:13:20;;;;;;;6.30;2.95;;;;;;;30.35;47.40;101824.03;5215628;28;20041;-72
2023/08/11 08:15:51;;;;;;;9.40;4.43;;;;;;;30.84;45.27;101828.56;5215604;28;20026;-73
2023/08/11 08:18:22;;;;;;;6.47;3.70;;;;;;;31.19;42.24;101830.28;5215975;28;20026;-74
2023/08/11 08:20:54;;;;;;;7.95;4.07;;;;;;;31.55;41.86;101829.03;5215747;28;20061;-72
2023/08/11 08:23:25;;;;;;;6.00;3.22;;;;;;;31.77;39.65;101831.50;5216053;28;20037;-74
2023/08/11 08:25:56;;;;;;;6.72;3.72;;;;;;;31.70;40.43;101825.28;5214559;28;20048;-73
2023/08/11 08:28:28;;;;;;;7.75;2.92;;;;;;;32.26;38.24;101831.19;5216014;28;20038;-74
2023/08/11 08:30:59;;;;;;;5.55;2.90;;;;;;;32.01;39.11;101837.31;5198196;28;20120;-73
2023/08/11 08:33:31;;;;;;;9.10;2.85;;;;;;;33.11;38.26;101831.19;5213620;28;20084;-71
2023/08/11 08:36:02;;;;;;;10.68;2.97;;;;;;;32.91;36.73;101839.41;5215686;28;20022;-72
2023/08/11 08:38:33;;;;;;;7.72;2.80;;;;;;;33.32;38.15;101839.97;5217906;28;20032;-72
2023/08/11 08:41:08;;;;;;;4.78;3.20;;;;;;;33.91;35.71;101842.38;5226819;28;20033;-76
2023/08/11 08:43:40;;;;;;;9.23;3.50;;;;;;;32.83;37.90;101843.22;5224536;28;20036;-76
2023/08/11 08:46:13;;;;;;;7.18;3.50;;;;;;;31.71;40.24;101844.03;5234425;28;20026;-75
2023/08/11 08:48:55;;;;;;;7.68;3.45;;;;;;;31.62;40.75;101834.44;5233881;28;20044;-74
2023/08/11 08:51:26;;;;;;;6.45;3.75;;;;;;;30.87;42.70;101833.56;5234233;28;20025;-74
2023/08/11 08:53:58;;;;;;;6.45;3.67;;;;;;;30.49;42.80;101833.03;5234487;28;20037;-75
2023/08/11 08:56:29;;;;;;;8.05;4.50;;;;;;;30.15;44.67;101832.84;5232310;28;20068;-77
2023/08/11 08:59:01;;;;;;;8.63;3.70;;;;;;;29.95;44.96;101830.84;5233525;28;20026;-75
2023/08/11 09:01:34;;;;;;;11.10;3.88;;;;;;;29.67;46.75;101823.59;5225575;28;20042;-73
2023/08/11 09:04:06;;;;;;;;;;;;;;;31.12;45.24;101830.28;5228351;28;20046;-74
2023/08/11 09:06:38;;;;;;;5.97;2.75;;;;;;;29.83;47.00;101824.38;5235076;28;19917;-75
2023/08/11 09:09:10;;;;;;;10.52;4.57;;;;;;;29.35;48.11;101820.44;5234378;28;20200;-72
2023/08/11 09:11:42;;;;;;;5.70;3.40;;;;;;;29.18;48.83;101827.97;5234252;28;20128;-73
2023/08/11 09:14:14;;;;;;;7.38;4.30;;;;;;;29.03;51.00;101825.34;5234823;28;20112;-70
2023/08/11 09:16:46;;;;;;;16.40;4.15;;;;;;;29.78;50.61;101829.50;5232360;28;20152;-72
2023/08/11 09:19:19;;;;;;;5.80;3.85;;;;;;;29.14;49.89;101832.06;5235213;28;20067;-71
2023/08/11 09:21:52;;;;;;;17.73;4.32;;;;;;;29.02;50.67;101826.38;5234227;28;20233;-72
2023/08/11 09:24:24;;;;;;;5.53;3.22;;;;;;;29.22;49.86;101824.69;5231151;28;20049;-74
2023/08/11 09:26:58;;;;;;;9.45;3.72;;;;;;;29.04;52.58;101824.31;5230461;28;20123;-70
2023/08/11 09:29:29;;;;;;;4.05;2.70;;;;;;;29.37;51.42;101822.94;5225237;28;20172;-73
2023/08/11 09:32:02;;;;;;;7.28;2.70;;;;;;;28.93;51.63;101821.06;5227734;28;20120;-71
2023/08/11 09:34:39;;;;;;;8.32;3.38;;;;;;;29.45;50.13;101826.34;5234192;28;20392;-71
2023/08/11 09:37:10;;;;;;;7.68;3.15;;;;;;;29.05;52.75;101823.28;5234661;28;20025;-70
2023/08/11 09:39:42;;;;;;;4.80;2.65;;;;;;;29.44;50.31;101815.75;5232588;28;20357;-68
2023/08/11 09:42:15;;;;;;;6.25;2.72;;;;;;;29.38;53.39;101811.97;5212516;28;20141;-69
2023/08/11 09:44:51;;;;;;;8.63;3.08;;;;;;;29.28;52.28;101815.00;5233867;28;20450;-72
2023/08/11 09:47:22;;;;;;;10.48;3.15;;;;;;;28.77;53.48;101805.97;5227062;28;20033;-69
2023/08/11 09:49:54;;;;;;;4.45;3.28;;;;;;;28.35;54.43;101803.00;5233639;28;20133;-68
2023/08/11 09:52:26;;;;;;;4.63;2.92;;;;;;;28.90;52.18;101818.78;5230520;28;20480;-68
2023/08/11 09:54:58;;;;;;;5.83;2.60;;;;;;;28.71;55.05;101812.13;5229898;28;20095;-69
2023/08/11 09:57:30;;;;;;;5.47;2.85;;;;;;;28.81;53.58;101812.66;5231076;28;20025;-68
2023/08/11 10:00:03;;;;;;;5.97;2.75;;;;;;;28.94;53.13;101811.94;5233161;28;20025;-68
2023/08/11 10:02:35;;;;;;;9.00;3.60;;;;;;;29.14;52.50;101811.34;5232834;28;20033;-67
2023/08/11 10:05:10;;;;;;;8.60;2.45;;;;;;;29.33;52.23;101812.56;5231980;28;20123;-72
2023/08/11 10:07:43;;;;;;;5.57;2.67;;;;;;;28.89;53.89;101827.06;5228710;28;20029;-71
2023/08/11 10:10:17;;;;;;;3.55;2.45;;;;;;;29.27;52.03;101824.09;5232598;28;20492;-71
2023/08/11 10:12:56;;;;;;;5.78;3.10;;;;;;;29.37;53.52;101831.88;5233338;28;20084;-71
2023/08/11 10:15:30;;;;;;;4.10;2.40;;;;;;;29.13;52.80;101819.63;5233465;28;20105;-71
2023/08/11 10:18:02;;;;;;;7.28;2.58;;;;;;;29.29;53.12;101810.44;5233691;28;20036;-71
2023/08/11 10:20:34;;;;;;;4.75;2.40;;;;;;;29.43;50.42;101811.38;5233756;28;20025;-71
2023/08/11 10:23:06;;;;;;;4.22;2.42;;;;;;;29.29;51.49;101813.16;5232210;28;20037;-71
2023/08/11 10:25:38;;;;;;;3.80;2.28;;;;;;;29.24;51.31;101800.22;5232323;28;20076;-71
2023/08/11 10:28:12;;;;;;;5.38;1.70;;;;;;;29.93;50.17;101807.81;5233780;28;20520;-71
2023/08/11 10:30:53;;;;;;;6.88;2.50;;;;;;;29.35;51.28;101812.34;5233636;28;20037;-72
2023/08/11 10:33:29;;;;;;;4.38;1.90;;;;;;;29.93;48.28;101810.50;5233358;28;20026;-71
2023/08/11 10:36:01;;;;;;;4.40;2.35;;;;;;;29.54;51.10;101812.69;5232757;28;20508;-71
2023/08/11 10:38:33;;;;;;;5.68;2.13;;;;;;;29.58;50.43;101811.28;5232633;28;20025;-71
2023/08/11 10:41:07;;;;;;;3.42;2.10;;;;;;;29.91;48.61;101809.84;5212028;28;20431;-71
2023/08/11 10:43:42;;;;;;;4.05;2.40;;;;;;;29.48;51.28;101798.16;5213842;28;20041;-71
2023/08/11 10:46:28;;;;;;;5.45;1.95;;;;;;;30.24;51.15;101801.13;5231707;28;20056;-71
2023/08/11 10:49:22;;;;;;;3.55;1.90;;;;;;;30.44;48.89;101803.06;5232921;28;20518;-68
2023/08/11 10:51:53;;;;;;;5.47;1.70;;;;;;;30.40;46.62;101810.75;5232996;28;20032;-68
2023/08/11 10:54:25;;;;;;;5.22;1.80;;;;;;;30.94;47.18;101818.19;5233889;28;20029;-69
2023/08/11 10:57:00;;;;;;;6.80;2.22;;;;;;;30.84;45.69;101815.88;5232408;28;20546;-68
2023/08/11 10:59:33;;;;;;;6.65;1.90;;;;;;;31.19;44.11;101814.88;5234001;28;20357;-69
2023/08/11 11:02:04;;;;;;;4.65;1.77;;;;;;;31.37;43.91;101806.13;5233328;28;20030;-69
2023/08/11 11:04:36;;;;;;;10.63;2.33;;;;;;;30.81;48.17;101804.63;5233463;28;20044;-69
2023/08/11 11:07:07;;;;;;;5.95;1.88;;;;;;;31.48;46.15;101801.16;5233438;28;20022;-69
2023/08/11 11:09:38;;;;;;;6.75;2.00;;;;;;;31.61;44.22;101811.94;5232724;28;20044;-69
2023/08/11 11:12:10;;;;;;;5.78;1.80;;;;;;;31.41;44.26;101806.56;5230310;28;20022;-71
2023/08/11 11:14:42;;;;;;;8.35;2.20;;;;;;;31.73;42.07;101808.63;5233525;28;20026;-71
2023/08/11 11:17:14;;;;;;;3.20;1.88;;;;;;;31.03;44.53;101802.59;5231194;28;20026;-71
2023/08/11 11:19:46;;;;;;;3.30;2.00;;;;;;;31.80;43.80;101801.31;5212775;28;20077;-71
2023/08/11 11:22:17;;;;;;;3.72;1.90;;;;;;;31.83;42.13;101811.72;5212012;28;20304;-71
2023/08/11 11:24:48;;;;;;;5.60;2.00;;;;;;;31.79;41.70;101812.31;5215475;28;20033;-71
2023/08/11 11:27:21;;;;;;;3.70;2.17;;;;;;;31.48;42.81;101801.16;5232582;28;20037;-71
2023/08/11 11:29:59;;;;;;;3.95;1.67;;;;;;;32.24;42.34;101807.00;5232864;28;20059;-71
2023/08/11 11:32:30;;;;;;;3.92;1.85;;;;;;;32.08;40.79;101794.78;5228376;28;20391;-71
2023/08/11 11:35:03;;;;;;;2.85;2.20;;;;;;;31.47;43.40;101805.72;5214072;28;20049;-71
2023/08/11 11:37:35;;;;;;;8.05;3.08;;;;;;;31.18;45.04;101801.53;5211157;28;20044;-71
2023/08/11 11:40:09;;;;;;;3.75;1.88;;;;;;;31.12;46.45;101798.63;5226000;28;20030;-71